YBBN/BNE METAR and TAF weather

Enter ICAO airport designator
Station Type Date Time Source
YBBN METAR 2021/05/13 18:30 UTC NOAA

YBBN 131830Z 24005KT CAVOK 12/08 Q1012


Station Type Date Time Source
YBBN Decoded METAR 2021/05/13 18:30 UTC NOAA

Brisbane Airport M. O, Australia (YBBN) 27-23S 153-06E 5M
May 13, 2021 - 02:30 PM EDT / 2021.05.13 1830 UTC
Wind: from the WSW (240 degrees) at 6 MPH (5 KT):0
Visibility: greater than 7 mile(s):0
Temperature: 53 F (12 C)
Dew Point: 46 F (8 C)
Relative Humidity: 76%
Pressure (altimeter): 29.88 in. Hg (1012 hPa)
ob: YBBN 131830Z 24005KT CAVOK 12/08 Q1012
cycle: 18

Station Type Date Time Source
YBBN TAF 2021/05/13 18:31 UTC NOAA

TAF YBBN 131708Z 1318/1500 25006KT CAVOK
FM132300 21012KT CAVOK
FM140500 08008KT CAVOK
FM141000 22005KT CAVOK

Example: see airport list